logo dgac
Lunes 03 de Agosto del 2020

Metar

Buscar por aerodromo o helipuerto
Ingrese nombre de aeródromo, localidad o designador OACI:


METAR del 03-08-2020 a las 18:00 UTC
Para mayor información visite www.meteochile.cl
METAR SAZS 031800Z 29020KT 9000 VCSH SCT038 SCT044 08/03 Q1012
Viento: dirección 290 grados, velocidad 20 nudos
Visibilidad: 9000 metros
En los alrededores, Chubascos
Nubes: Nubosidad parcial a 3800 pies sobre el nivel del aeródromo
Nubes: Nubosidad parcial a 4400 pies sobre el nivel del aeródromo
Temperatura: 8 °C
Rocío: 3 °C
Humedad_relativa: 71%
Presión: 1012 hPa
METAR del 03-08-2020 a las 18:00 UTC
Para mayor información visite www.meteochile.cl
METAR SAZN 031800Z 23005KT CAVOK 17/03 Q1012
Viento: dirección 230 grados, velocidad 5 nudos
Visibilidad: 10 km o más,
    sin nubes bajo los 5.000 pies o bajo del MSA (Mínimo de Seguridad del Aeródromo),
    sin cumulonimbus, y sin fenómenos de tiempo significativo en el aeródromo o alrededores
Temperatura: 17 °C
Rocío: 3 °C
Humedad_relativa: 39%
Presión: 1012 hPa
METAR del 03-08-2020 a las 18:00 UTC
Para mayor información visite www.meteochile.cl
METAR SAZM 031800Z 05012KT 5000 BR OVC004 11/10 Q1023
Viento: dirección 050 grados, velocidad 12 nudos
Visibilidad: 5000 metros
Neblina
Nubes: Cubierto a 400 pies sobre el nivel del aeródromo
Temperatura: 11 °C
Rocío: 10 °C
Humedad_relativa: 94%
Presión: 1023 hPa
METAR del 03-08-2020 a las 18:00 UTC
Para mayor información visite www.meteochile.cl
METAR SAWH 031800Z 32010KT 9999 SCT045 10/M02 Q0988
Viento: dirección 320 grados, velocidad 10 nudos
Visibilidad: 10 km o más
Nubes: Nubosidad parcial a 4500 pies sobre el nivel del aeródromo
Temperatura: 10 °C
Rocío: -2 °C
Humedad_relativa: 43%
Presión: 988 hPa
METAR del 03-08-2020 a las 18:00 UTC
Para mayor información visite www.meteochile.cl
METAR SAVC 031800Z 34007KT CAVOK 16/05 Q1005
Viento: dirección 340 grados, velocidad 7 nudos
Visibilidad: 10 km o más,
    sin nubes bajo los 5.000 pies o bajo del MSA (Mínimo de Seguridad del Aeródromo),
    sin cumulonimbus, y sin fenómenos de tiempo significativo en el aeródromo o alrededores
Temperatura: 16 °C
Rocío: 5 °C
Humedad_relativa: 48%
Presión: 1005 hPa
METAR del 03-08-2020 a las 18:00 UTC
Para mayor información visite www.meteochile.cl
METAR SASJ 031800Z 05012G23KT 9999 FEW030 29/11 Q1018
Viento: dirección 050 grados, velocidad 12 nudos, con ráfagas de velocidad máxima de 23Nudos
Visibilidad: 10 km o más
Nubes: Escasa nubosidad a 3000 pies sobre el nivel del aeródromo
Temperatura: 29 °C
Rocío: 11 °C
Humedad_relativa: 33%
Presión: 1018 hPa
METAR del 03-08-2020 a las 18:00 UTC
Para mayor información visite www.meteochile.cl
METAR SASA 031800Z 02008KT 9999 SCT030 27/07 Q1019
Viento: dirección 020 grados, velocidad 8 nudos
Visibilidad: 10 km o más
Nubes: Nubosidad parcial a 3000 pies sobre el nivel del aeródromo
Temperatura: 27 °C
Rocío: 7 °C
Humedad_relativa: 28%
Presión: 1019 hPa
METAR del 03-08-2020 a las 18:00 UTC
Para mayor información visite www.meteochile.cl
METAR SAZS 031800Z 29020KT 9000 VCSH SCT038 SCT044 08/03 Q1012
Viento: dirección 290 grados, velocidad 20 nudos
Visibilidad: 9000 metros
En los alrededores, Chubascos
Nubes: Nubosidad parcial a 3800 pies sobre el nivel del aeródromo
Nubes: Nubosidad parcial a 4400 pies sobre el nivel del aeródromo
Temperatura: 8 °C
Rocío: 3 °C
Humedad_relativa: 71%
Presión: 1012 hPa
METAR del 03-08-2020 a las 18:00 UTC
Para mayor información visite www.meteochile.cl
METAR SAZN 031800Z 23005KT CAVOK 17/03 Q1012
Viento: dirección 230 grados, velocidad 5 nudos
Visibilidad: 10 km o más,
    sin nubes bajo los 5.000 pies o bajo del MSA (Mínimo de Seguridad del Aeródromo),
    sin cumulonimbus, y sin fenómenos de tiempo significativo en el aeródromo o alrededores
Temperatura: 17 °C
Rocío: 3 °C
Humedad_relativa: 39%
Presión: 1012 hPa
METAR del 03-08-2020 a las 18:00 UTC
Para mayor información visite www.meteochile.cl
METAR SAZM 031800Z 05012KT 5000 BR OVC004 11/10 Q1023
Viento: dirección 050 grados, velocidad 12 nudos
Visibilidad: 5000 metros
Neblina
Nubes: Cubierto a 400 pies sobre el nivel del aeródromo
Temperatura: 11 °C
Rocío: 10 °C
Humedad_relativa: 94%
Presión: 1023 hPa